Map

Track Data

SID SEASON NUMBER BASIN SUBBASIN NAME ISO_TIME NATURE LAT LON WMO_WIND WMO_PRES WMO_AGENCY TRACK_TYPE DIST2LAND LANDFALL IFLAG USA_AGENCY USA_ATCF_ID USA_LAT USA_LON USA_RECORD USA_STATUS USA_WIND USA_PRES USA_SSHS USA_R34_NE USA_R34_SE USA_R34_SW USA_R34_NW USA_R50_NE USA_R50_SE USA_R50_SW USA_R50_NW USA_R64_NE USA_R64_SE USA_R64_SW USA_R64_NW USA_POCI USA_ROCI USA_RMW USA_EYE TOKYO_LAT TOKYO_LON TOKYO_GRADE TOKYO_WIND TOKYO_PRES TOKYO_R50_DIR TOKYO_R50_LONG TOKYO_R50_SHORT TOKYO_R30_DIR TOKYO_R30_LONG TOKYO_R30_SHORT TOKYO_LAND CMA_LAT CMA_LON CMA_CAT CMA_WIND CMA_PRES HKO_LAT HKO_LON HKO_CAT HKO_WIND HKO_PRES NEWDELHI_LAT NEWDELHI_LON NEWDELHI_GRADE NEWDELHI_WIND NEWDELHI_PRES NEWDELHI_CI NEWDELHI_DP NEWDELHI_POCI REUNION_LAT REUNION_LON REUNION_TYPE REUNION_WIND REUNION_PRES REUNION_TNUM REUNION_CI REUNION_RMW REUNION_R34_NE REUNION_R34_SE REUNION_R34_SW REUNION_R34_NW REUNION_R50_NE REUNION_R50_SE REUNION_R50_SW REUNION_R50_NW REUNION_R64_NE REUNION_R64_SE REUNION_R64_SW REUNION_R64_NW BOM_LAT BOM_LON BOM_TYPE BOM_WIND BOM_PRES BOM_TNUM BOM_CI BOM_RMW BOM_R34_NE BOM_R34_SE BOM_R34_SW BOM_R34_NW BOM_R50_NE BOM_R50_SE BOM_R50_SW BOM_R50_NW BOM_R64_NE BOM_R64_SE BOM_R64_SW BOM_R64_NW BOM_ROCI BOM_POCI BOM_EYE BOM_POS_METHOD BOM_PRES_METHOD NADI_LAT NADI_LON NADI_CAT NADI_WIND NADI_PRES WELLINGTON_LAT WELLINGTON_LON WELLINGTON_WIND WELLINGTON_PRES DS824_LAT DS824_LON DS824_STAGE DS824_WIND DS824_PRES TD9636_LAT TD9636_LON TD9636_STAGE TD9636_WIND TD9636_PRES TD9635_LAT TD9635_LON TD9635_WIND TD9635_PRES TD9635_ROCI NEUMANN_LAT NEUMANN_LON NEUMANN_CLASS NEUMANN_WIND NEUMANN_PRES MLC_LAT MLC_LON MLC_CLASS MLC_WIND MLC_PRES USA_GUST BOM_GUST BOM_GUST_PER REUNION_GUST REUNION_GUST_PER USA_SEAHGT USA_SEARAD_NE USA_SEARAD_SE USA_SEARAD_SW USA_SEARAD_NW STORM_SPEED STORM_DIR
1959214N35284 1959 56 NA NA NOT_NAMED 1959-08-02 00:00:00 TS 35.0000 -76.5000 30 hurdat_atl main 0 0 O_____________ hurdat_atl AL121959 35.0000 -76.5000 TD 30 -1 5 110
1959214N35284 1959 56 NA NA NOT_NAMED 1959-08-02 03:00:00 TS 34.9051 -76.1904 main 9 9 P_____________ AL121959 34.9051 -76.1904 TD 35 0 6 109
1959214N35284 1959 56 NA NA NOT_NAMED 1959-08-02 06:00:00 TS 34.8000 -75.8000 40 hurdat_atl main 46 46 O_____________ hurdat_atl AL121959 34.8000 -75.8000 TS 40 0 8 105
1959214N35284 1959 56 NA NA NOT_NAMED 1959-08-02 09:00:00 TS 34.6972 -75.2664 main 93 93 P_____________ AL121959 34.6972 -75.2664 TS 50 0 10 96
1959214N35284 1959 56 NA NA NOT_NAMED 1959-08-02 12:00:00 TS 34.7000 -74.6000 60 hurdat_atl main 141 141 O_____________ hurdat_atl AL121959 34.7000 -74.6000 TS 60 0 11 82
1959214N35284 1959 56 NA NA NOT_NAMED 1959-08-02 15:00:00 TS 34.8589 -73.8810 main 176 176 P_____________ AL121959 34.8589 -73.8810 TS 60 0 14 69
1959214N35284 1959 56 NA NA NOT_NAMED 1959-08-02 18:00:00 TS 35.2000 -73.0000 60 hurdat_atl main 235 235 O_____________ hurdat_atl AL121959 35.2000 -73.0000 TS 60 0 18 62
1959214N35284 1959 56 NA NA NOT_NAMED 1959-08-02 21:00:00 TS 35.7201 -71.9114 main 324 324 P_____________ AL121959 35.7201 -71.9114 TS 60 0 22 60
1959214N35284 1959 56 NA NA NOT_NAMED 1959-08-03 00:00:00 TS 36.3000 -70.7000 60 hurdat_atl main 434 434 O_____________ hurdat_atl AL121959 36.3000 -70.7000 TS 60 0 22 62
1959214N35284 1959 56 NA NA NOT_NAMED 1959-08-03 03:00:00 TS 36.7796 -69.4842 main 515 515 P_____________ AL121959 36.7796 -69.4842 TS 57 0 21 65
1959214N35284 1959 56 NA NA NOT_NAMED 1959-08-03 06:00:00 TS 37.2000 -68.3000 55 hurdat_atl main 520 513 O_____________ hurdat_atl AL121959 37.2000 -68.3000 TS 55 0 20 67
1959214N35284 1959 56 NA NA NOT_NAMED 1959-08-03 09:00:00 TS 37.5561 -67.2179 main 515 515 P_____________ AL121959 37.5561 -67.2179 TS 55 0 18 67
1959214N35284 1959 56 NA NA NOT_NAMED 1959-08-03 12:00:00 TS 37.9000 -66.2000 55 hurdat_atl main 532 532 O_____________ hurdat_atl AL121959 37.9000 -66.2000 TS 55 0 18 65
1959214N35284 1959 56 NA NA NOT_NAMED 1959-08-03 15:00:00 TS 38.2995 -65.1698 main 556 540 P_____________ AL121959 38.2995 -65.1698 TS 52 0 18 63
1959214N35284 1959 56 NA NA NOT_NAMED 1959-08-03 18:00:00 TS 38.7000 -64.2000 50 hurdat_atl main 541 522 O_____________ hurdat_atl AL121959 38.7000 -64.2000 TS 50 0 17 63
1959214N35284 1959 56 NA NA NOT_NAMED 1959-08-03 21:00:00 TS 39.0498 -63.2742 main 527 508 P_____________ AL121959 39.0498 -63.2742 TS 50 0 15 62
1959214N35284 1959 56 NA NA NOT_NAMED 1959-08-04 00:00:00 ET 39.4000 -62.5000 50 hurdat_atl main 511 493 O_____________ hurdat_atl AL121959 39.4000 -62.5000 EX 50 -4 13 55
1959214N35284 1959 56 NA NA NOT_NAMED 1959-08-04 03:00:00 ET 39.7994 -61.8948 main 498 482 P_____________ AL121959 39.7994 -61.8948 EX 47 -4 11 44
1959214N35284 1959 56 NA NA NOT_NAMED 1959-08-04 06:00:00 ET 40.2000 -61.5000 45 hurdat_atl main 482 466 O_____________ hurdat_atl AL121959 40.2000 -61.5000 EX 45 -4 9 32
1959214N35284 1959 56 NA NA NOT_NAMED 1959-08-04 09:00:00 ET 40.5646 -61.2743 main 457 435 P_____________ AL121959 40.5646 -61.2743 EX 45 -4 7 18
1959214N35284 1959 56 NA NA NOT_NAMED 1959-08-04 12:00:00 ET 40.9000 -61.2000 45 hurdat_atl main 435 405 O_____________ hurdat_atl AL121959 40.9000 -61.2000 EX 45 -4 7 6
1959214N35284 1959 56 NA NA NOT_NAMED 1959-08-04 15:00:00 ET 41.2150 -61.1772 main 405 376 P_____________ AL121959 41.2150 -61.1772 EX 45 -4 6 1
1959214N35284 1959 56 NA NA NOT_NAMED 1959-08-04 18:00:00 ET 41.5000 -61.2000 45 hurdat_atl main 376 357 O_____________ hurdat_atl AL121959 41.5000 -61.2000 EX 45 -4 5 0
1959214N35284 1959 56 NA NA NOT_NAMED 1959-08-04 21:00:00 ET 41.7575 -61.2074 main 347 326 P_____________ AL121959 41.7575 -61.2074 EX 45 -4 5 2
1959214N35284 1959 56 NA NA NOT_NAMED 1959-08-05 00:00:00 ET 42.0000 -61.2000 45 hurdat_atl main 326 306 O_____________ hurdat_atl AL121959 42.0000 -61.2000 EX 45 -4 5 1
1959214N35284 1959 56 NA NA NOT_NAMED 1959-08-05 03:00:00 ET 42.2500 -61.1724 main 306 279 P_____________ AL121959 42.2500 -61.1724 EX 42 -4 5 9
1959214N35284 1959 56 NA NA NOT_NAMED 1959-08-05 06:00:00 ET 42.5000 -61.1000 40 hurdat_atl main 279 262 O_____________ hurdat_atl AL121959 42.5000 -61.1000 EX 40 -4 5 17
1959214N35284 1959 56 NA NA NOT_NAMED 1959-08-05 09:00:00 ET 42.7350 -60.9649 main 262 238 P_____________ AL121959 42.7350 -60.9649 EX 40 -4 5 24
1959214N35284 1959 56 NA NA NOT_NAMED 1959-08-05 12:00:00 ET 43.0000 -60.8000 40 hurdat_atl main 238 211 O_____________ hurdat_atl AL121959 43.0000 -60.8000 EX 40 -4 6 21
1959214N35284 1959 56 NA NA NOT_NAMED 1959-08-05 15:00:00 ET 43.3350 -60.6499 main 214 173 P_____________ AL121959 43.3350 -60.6499 EX 40 -4 7 17
1959214N35284 1959 56 NA NA NOT_NAMED 1959-08-05 18:00:00 ET 43.7000 -60.5000 40 hurdat_atl main 173 144 O_____________ hurdat_atl AL121959 43.7000 -60.5000 EX 40 -4 7 17
1959214N35284 1959 56 NA NA NOT_NAMED 1959-08-05 21:00:00 ET 44.0425 -60.3498 main 147 113 P_____________ AL121959 44.0425 -60.3498 EX 37 -4 7 17
1959214N35284 1959 56 NA NA NOT_NAMED 1959-08-06 00:00:00 ET 44.4000 -60.2000 35 hurdat_atl main 113 89 O_____________ hurdat_atl AL121959 44.4000 -60.2000 EX 35 -4 8 16
1959214N35284 1959 56 NA NA NOT_NAMED 1959-08-06 03:00:00 ET 44.7775 -60.0570 main 89 59 P_____________ AL121959 44.7775 -60.0570 EX 32 -4 8 15
1959214N35284 1959 56 NA NA NOT_NAMED 1959-08-06 06:00:00 ET 45.2000 -59.9000 30 hurdat_atl main 59 32 O_____________ hurdat_atl AL121959 45.2000 -59.9000 EX 30 -4 9 14
1959214N35284 1959 56 NA NA NOT_NAMED 1959-08-06 09:00:00 ET 45.6622 -59.7507 main 25 18 P_____________ AL121959 45.6622 -59.7507 EX 27 -4 10 16
1959214N35284 1959 56 NA NA NOT_NAMED 1959-08-06 12:00:00 ET 46.2000 -59.5000 25 hurdat_atl main 22 22 O_____________ hurdat_atl AL121959 46.2000 -59.5000 EX 25 -4 13 22
1959214N35284 1959 56 NA NA NOT_NAMED 1959-08-06 15:00:00 ET 46.8258 -59.0615 main 85 13 P_____________ AL121959 46.8258 -59.0615 EX 25 -4 15 28
1959214N35284 1959 56 NA NA NOT_NAMED 1959-08-06 18:00:00 ET 47.5000 -58.5000 25 hurdat_atl main 13 O_____________ hurdat_atl AL121959 47.5000 -58.5000 EX 25 -4 15 29

About IBTrACS Database

This database is a web-friendly format of International Best Track Archive for Climate Stewardship (IBTrACS), a global best track data archive curated by NOAA dating back to 1842.

Updated: 2021-12-03